Time;durP1;ratioP1;P1;durP2;ratioP2;P2;SDS_P1;SDS_P2;PMS_P1;PMS_P2;Temp;Humidity;BMP_temperature;BMP_pressure;BME280_temperature;BME280_humidity;BME280_pressure;Samples;Min_cycle;Max_cycle;Signal;HPM_P1;HPM_P2
2021/09/22 00:00:43;;;;;;;3.72;1.98;;;14.70;92.40;;;;;;6301807;22;20003;-81
2021/09/22 00:03:09;;;;;;;2.47;1.60;;;14.70;92.40;;;;;;6302500;22;20364;-80
2021/09/22 00:05:35;;;;;;;1.70;1.35;;;14.80;92.60;;;;;;6301899;22;20046;-79
2021/09/22 00:08:00;;;;;;;3.65;2.22;;;14.80;92.80;;;;;;6300468;22;20003;-80
2021/09/22 00:10:26;;;;;;;2.85;1.70;;;14.80;92.80;;;;;;6302587;22;20007;-80
2021/09/22 00:12:51;;;;;;;4.30;1.85;;;14.80;92.60;;;;;;6303205;22;20007;-79
2021/09/22 00:15:23;;;;;;;4.45;1.38;;;14.80;92.70;;;;;;6304416;22;20000;-80
2021/09/22 00:17:49;;;;;;;2.33;1.52;;;14.90;92.60;;;;;;6276246;22;20018;-79
2021/09/22 00:20:15;;;;;;;1.50;1.30;;;14.80;92.70;;;;;;6303776;22;20436;-80
2021/09/22 00:22:41;;;;;;;3.30;1.88;;;14.80;93.00;;;;;;6303769;22;20354;-80
2021/09/22 00:25:07;;;;;;;2.30;1.90;;;14.80;93.10;;;;;;6304510;22;20078;-79
2021/09/22 00:27:33;;;;;;;2.20;1.98;;;14.80;93.10;;;;;;6303027;22;20421;-81
2021/09/22 00:29:59;;;;;;;3.22;2.15;;;14.80;93.10;;;;;;6304295;22;19999;-80
2021/09/22 00:32:27;;;;;;;2.53;1.83;;;14.80;93.10;;;;;;6303457;22;19999;-79
2021/09/22 00:34:53;;;;;;;3.63;2.20;;;14.80;93.20;;;;;;6304048;22;20100;-80
2021/09/22 00:37:20;;;;;;;2.67;2.03;;;14.80;93.20;;;;;;6276521;22;20072;-79
2021/09/22 00:39:46;;;;;;;4.90;2.20;;;14.70;93.30;;;;;;6303196;22;20030;-80
2021/09/22 00:42:11;;;;;;;5.50;2.40;;;14.70;93.50;;;;;;6304387;22;20295;-79
2021/09/22 00:44:57;;;;;;;3.25;2.60;;;14.70;93.60;;;;;;6304213;22;20026;-79
2021/09/22 00:47:27;;;;;;;3.97;2.47;;;14.70;93.80;;;;;;6303730;22;20104;-79
2021/09/22 00:49:53;;;;;;;3.40;2.70;;;14.60;93.90;;;;;;6303584;22;20011;-78
2021/09/22 00:52:20;;;;;;;4.22;2.55;;;14.60;94.30;;;;;;6276587;22;20003;-78
2021/09/22 00:54:46;;;;;;;5.57;2.30;;;14.50;94.10;;;;;;6304301;22;19991;-78
2021/09/22 00:57:14;;;;;;;5.50;2.58;;;14.50;94.20;;;;;;6303647;22;20014;-79
2021/09/22 00:59:39;;;;;;;4.75;2.42;;;14.50;94.20;;;;;;6302640;22;20015;-80
2021/09/22 01:02:06;;;;;;;5.70;2.85;;;14.50;94.30;;;;;;6304000;22;20058;-79
2021/09/22 01:04:32;;;;;;;4.32;3.00;;;14.60;94.30;;;;;;6304963;22;20094;-79
2021/09/22 01:06:58;;;;;;;2.67;2.22;;;14.60;94.30;;;;;;6304447;22;20003;-79
2021/09/22 01:09:26;;;;;;;3.03;1.85;;;14.60;94.40;;;;;;6303459;22;20358;-78
2021/09/22 01:11:51;;;;;;;4.03;2.60;;;14.60;94.50;;;;;;6303899;22;20027;-79
2021/09/22 01:14:24;;;;;;;3.83;2.78;;;14.60;94.50;;;;;;6305341;22;19999;-78
2021/09/22 01:16:50;;;;;;;4.20;2.88;;;14.60;94.40;;;;;;6304943;22;19995;-79
2021/09/22 01:19:16;;;;;;;5.95;2.75;;;14.60;94.40;;;;;;6302974;22;19991;-78
2021/09/22 01:21:46;;;;;;;6.13;2.72;;;14.60;94.50;;;;;;6303682;22;20003;-78
2021/09/22 01:24:12;;;;;;;3.22;2.70;;;14.50;94.60;;;;;;6305910;22;20004;-80
2021/09/22 01:26:39;;;;;;;3.45;2.72;;;14.50;94.90;;;;;;6304662;22;20402;-81
2021/09/22 01:29:04;;;;;;;5.22;2.72;;;14.50;95.10;;;;;;6303279;22;20033;-80
2021/09/22 01:31:32;;;;;;;4.97;2.25;;;14.50;95.30;;;;;;6302866;22;20003;-78
2021/09/22 01:34:00;;;;;;;7.68;2.25;;;14.40;95.40;;;;;;6277180;22;20038;-78
2021/09/22 01:36:26;;;;;;;5.75;3.30;;;14.40;95.60;;;;;;6304205;22;20607;-80
2021/09/22 01:38:52;;;;;;;5.93;3.17;;;14.40;95.60;;;;;;6302129;22;20003;-78
2021/09/22 01:41:17;;;;;;;9.93;4.07;;;14.40;95.70;;;;;;6304747;22;20003;-79
2021/09/22 01:43:43;;;;;;;6.90;3.13;;;14.40;96.00;;;;;;6303646;22;20082;-80
2021/09/22 01:46:09;;;;;;;5.28;2.92;;;14.40;95.90;;;;;;6275243;22;20050;-79
2021/09/22 01:48:35;;;;;;;8.18;2.95;;;14.40;95.90;;;;;;6302555;22;20410;-79
2021/09/22 01:51:02;;;;;;;9.52;3.58;;;14.40;96.00;;;;;;6302847;22;20076;-78
2021/09/22 01:53:29;;;;;;;7.93;3.30;;;14.40;96.10;;;;;;6275663;22;20064;-81
2021/09/22 01:55:55;;;;;;;11.35;3.58;;;14.40;96.10;;;;;;6302743;22;19995;-79
2021/09/22 01:58:21;;;;;;;12.13;4.07;;;14.40;96.20;;;;;;6301795;22;20006;-80
2021/09/22 02:00:47;;;;;;;6.70;3.97;;;14.40;96.20;;;;;;6303392;22;19999;-80
2021/09/22 02:03:14;;;;;;;10.55;3.53;;;14.40;96.30;;;;;;6303938;22;20410;-79
2021/09/22 02:05:39;;;;;;;5.50;2.95;;;14.30;96.50;;;;;;6302526;22;20002;-78
2021/09/22 02:08:05;;;;;;;11.63;4.25;;;14.30;96.50;;;;;;6274580;22;20003;-78
2021/09/22 02:10:31;;;;;;;5.53;3.22;;;14.30;96.50;;;;;;6302434;22;20382;-80
2021/09/22 02:12:56;;;;;;;5.15;3.00;;;14.30;96.70;;;;;;6274705;22;19999;-79
2021/09/22 02:15:22;;;;;;;5.50;3.58;;;14.20;96.80;;;;;;6302931;22;20364;-79
2021/09/22 02:17:48;;;;;;;10.32;3.20;;;14.20;96.80;;;;;;6274078;22;20841;-79
2021/09/22 02:20:14;;;;;;;9.95;3.40;;;14.20;96.80;;;;;;6302668;22;19995;-79
2021/09/22 02:22:40;;;;;;;8.25;3.80;;;14.20;96.90;;;;;;6302911;22;19992;-79
2021/09/22 02:25:08;;;;;;;8.18;3.53;;;14.20;97.00;;;;;;6302607;22;20009;-79
2021/09/22 02:27:33;;;;;;;7.18;4.22;;;14.20;97.00;;;;;;6275110;22;20386;-79
2021/09/22 02:29:59;;;;;;;10.65;4.03;;;14.20;97.10;;;;;;6301972;22;20030;-79
2021/09/22 02:32:24;;;;;;;9.93;4.13;;;14.10;97.10;;;;;;6275645;22;20003;-80
2021/09/22 02:34:50;;;;;;;11.82;3.35;;;14.10;97.20;;;;;;6302910;22;20317;-80
2021/09/22 02:37:15;;;;;;;11.85;3.80;;;14.10;97.30;;;;;;6275471;22;20076;-79
2021/09/22 02:39:41;;;;;;;10.50;3.50;;;14.10;97.40;;;;;;6302538;22;20306;-79
2021/09/22 02:42:06;;;;;;;8.40;3.47;;;14.10;97.40;;;;;;6275379;22;20018;-79
2021/09/22 02:44:33;;;;;;;9.10;3.65;;;14.00;97.50;;;;;;6302314;22;20342;-78
2021/09/22 02:46:59;;;;;;;8.13;3.15;;;14.00;97.60;;;;;;6303237;22;19999;-79
2021/09/22 02:49:24;;;;;;;11.05;3.70;;;13.90;97.60;;;;;;6301120;22;20009;-79
2021/09/22 02:51:50;;;;;;;7.72;3.20;;;14.00;97.70;;;;;;6302725;22;20090;-79
2021/09/22 02:54:15;;;;;;;10.80;5.13;;;13.90;97.70;;;;;;6302646;22;20045;-79
2021/09/22 02:56:41;;;;;;;9.85;3.30;;;13.90;97.80;;;;;;6302914;22;20007;-79
2021/09/22 02:59:06;;;;;;;6.82;3.45;;;13.90;97.80;;;;;;6302301;22;20056;-79
2021/09/22 03:01:32;;;;;;;11.70;3.55;;;13.80;97.90;;;;;;6303162;22;20038;-79
2021/09/22 03:03:58;;;;;;;13.20;4.15;;;13.80;97.90;;;;;;6302338;22;20015;-79
2021/09/22 03:06:24;;;;;;;10.90;4.07;;;13.80;98.00;;;;;;6302711;22;20007;-79
2021/09/22 03:08:50;;;;;;;14.38;3.70;;;13.80;98.10;;;;;;6301820;22;20027;-79
2021/09/22 03:11:15;;;;;;;7.88;3.65;;;13.80;98.10;;;;;;6303000;22;19998;-80
2021/09/22 03:13:40;;;;;;;10.13;3.75;;;13.80;98.20;;;;;;6300971;22;20003;-80
2021/09/22 03:16:07;;;;;;;10.35;3.53;;;13.80;98.20;;;;;;6301966;22;20529;-79
2021/09/22 03:18:33;;;;;;;10.82;4.00;;;13.80;98.30;;;;;;6274516;22;20094;-79
2021/09/22 03:20:58;;;;;;;9.75;3.25;;;13.80;98.30;;;;;;6302173;22;20638;-78
2021/09/22 03:23:24;;;;;;;10.57;5.00;;;13.80;98.30;;;;;;6302091;22;20015;-78
2021/09/22 03:25:50;;;;;;;13.98;4.47;;;13.80;98.40;;;;;;6301602;22;20033;-80
2021/09/22 03:28:16;;;;;;;7.32;4.22;;;13.80;98.60;;;;;;6273343;22;20061;-79
2021/09/22 03:30:41;;;;;;;10.65;3.83;;;13.90;98.40;;;;;;6302694;22;20003;-78
2021/09/22 03:33:07;;;;;;;9.50;3.83;;;13.90;98.60;;;;;;6303373;22;20074;-77
2021/09/22 03:35:32;;;;;;;7.30;4.07;;;13.90;98.20;;;;;;6274704;22;20006;-78
2021/09/22 03:37:58;;;;;;;12.50;3.53;;;14.00;98.20;;;;;;6274221;22;20462;-78
2021/09/22 03:40:24;;;;;;;10.50;3.38;;;13.90;98.10;;;;;;6302115;22;19999;-79
2021/09/22 03:42:49;;;;;;;9.40;3.40;;;13.90;98.10;;;;;;6302126;22;20031;-78
2021/09/22 03:45:15;;;;;;;7.68;3.40;;;13.90;98.10;;;;;;6302170;22;20003;-78
2021/09/22 03:47:41;;;;;;;9.93;3.33;;;13.90;98.20;;;;;;6302184;22;20005;-80
2021/09/22 03:50:08;;;;;;;7.47;3.40;;;13.90;98.10;;;;;;6304710;22;20003;-78
2021/09/22 03:52:33;;;;;;;8.90;3.83;;;14.00;98.10;;;;;;6302414;22;20033;-78
2021/09/22 03:54:59;;;;;;;13.80;4.05;;;14.00;98.20;;;;;;6303687;22;20000;-79
2021/09/22 03:57:25;;;;;;;8.13;3.72;;;14.00;98.10;;;;;;6305018;22;19995;-79
2021/09/22 03:59:50;;;;;;;8.60;3.85;;;14.00;98.10;;;;;;6302564;22;20044;-79
2021/09/22 04:02:16;;;;;;;8.65;4.13;;;14.00;98.10;;;;;;6303558;22;20006;-79
2021/09/22 04:04:42;;;;;;;5.65;3.58;;;14.00;98.00;;;;;;6304516;22;19999;-79
2021/09/22 04:07:07;;;;;;;7.82;3.40;;;14.00;98.10;;;;;;6302268;22;20089;-79
2021/09/22 04:09:33;;;;;;;13.27;3.72;;;14.00;98.10;;;;;;6303729;22;20037;-79
2021/09/22 04:11:58;;;;;;;8.55;3.95;;;14.00;98.20;;;;;;6304680;22;19999;-80
2021/09/22 04:14:24;;;;;;;8.05;4.45;;;14.00;98.20;;;;;;6276342;22;20041;-80
2021/09/22 04:16:49;;;;;;;7.65;3.47;;;14.00;98.20;;;;;;6303524;22;19995;-80
2021/09/22 04:19:15;;;;;;;9.85;4.15;;;14.00;98.30;;;;;;6275825;22;20444;-79
2021/09/22 04:21:41;;;;;;;12.00;3.97;;;13.90;98.30;;;;;;6302984;22;19991;-79
2021/09/22 04:24:06;;;;;;;10.50;4.10;;;13.90;98.40;;;;;;6276788;22;20078;-80
2021/09/22 04:26:32;;;;;;;9.57;4.50;;;13.90;98.40;;;;;;6303832;22;20011;-80
2021/09/22 04:28:57;;;;;;;9.73;4.30;;;13.90;98.40;;;;;;6302595;22;20008;-79
2021/09/22 04:31:23;;;;;;;10.40;4.32;;;13.90;98.50;;;;;;6304213;22;20621;-79
2021/09/22 04:33:48;;;;;;;9.00;4.18;;;13.90;98.60;;;;;;6303946;22;20003;-80
2021/09/22 04:36:14;;;;;;;11.80;4.05;;;13.90;98.80;;;;;;6304337;22;20006;-79
2021/09/22 04:38:43;;;;;;;12.98;4.78;;;13.90;98.60;;;;;;6276508;22;20010;-79
2021/09/22 04:41:11;;;;;;;6.82;3.70;;;13.90;98.60;;;;;;6302636;22;20035;-78
2021/09/22 04:43:37;;;;;;;7.60;3.97;;;13.90;98.60;;;;;;6276678;22;20082;-78
2021/09/22 04:46:02;;;;;;;11.48;5.10;;;13.80;98.70;;;;;;6303395;22;20031;-79
2021/09/22 04:48:29;;;;;;;9.85;4.45;;;13.80;98.70;;;;;;6302104;22;20014;-79
2021/09/22 04:50:55;;;;;;;10.07;4.15;;;13.80;98.70;;;;;;6276740;22;20106;-79
2021/09/22 04:53:20;;;;;;;10.85;5.05;;;13.90;98.70;;;;;;6303786;22;20059;-78
2021/09/22 04:55:46;;;;;;;10.57;3.75;;;13.80;98.80;;;;;;6276543;22;20485;-78
2021/09/22 04:58:11;;;;;;;10.35;4.65;;;13.80;98.80;;;;;;6303153;22;20056;-78
2021/09/22 05:00:37;;;;;;;13.07;4.20;;;13.80;98.80;;;;;;6302138;22;20322;-79
2021/09/22 05:03:03;;;;;;;12.90;4.85;;;13.80;98.90;;;;;;6303388;22;20006;-79
2021/09/22 05:05:28;;;;;;;11.80;5.38;;;13.80;99.00;;;;;;6303288;22;20377;-79
2021/09/22 05:07:54;;;;;;;10.52;4.85;;;13.80;99.10;;;;;;6301176;22;20074;-79
2021/09/22 05:10:20;;;;;;;9.93;4.35;;;13.80;99.10;;;;;;6303387;22;20030;-81
2021/09/22 05:12:45;;;;;;;16.38;5.07;;;13.80;99.20;;;;;;6302946;22;20070;-78
2021/09/22 05:15:11;;;;;;;12.52;4.30;;;13.80;99.20;;;;;;6302659;22;20053;-82
2021/09/22 05:17:36;;;;;;;7.93;5.68;;;13.80;99.20;;;;;;6299383;22;20039;-78
2021/09/22 05:20:03;;;;;;;8.68;4.55;;;13.90;99.20;;;;;;6302926;22;20018;-79
2021/09/22 05:22:29;;;;;;;14.23;5.00;;;13.80;99.20;;;;;;6300806;22;20444;-79
2021/09/22 05:24:54;;;;;;;11.63;4.72;;;13.80;99.20;;;;;;6301557;22;20086;-79
2021/09/22 05:27:20;;;;;;;19.88;5.32;;;13.80;99.20;;;;;;6301642;22;20034;-79
2021/09/22 05:29:45;;;;;;;10.68;5.00;;;13.90;99.20;;;;;;6300730;22;20025;-79
2021/09/22 05:32:12;;;;;;;18.50;5.80;;;13.90;99.20;;;;;;6303259;22;20385;-84
2021/09/22 05:34:38;;;;;;;23.15;6.55;;;13.80;99.20;;;;;;6301237;22;20084;-80
2021/09/22 05:37:03;;;;;;;14.35;4.90;;;13.90;99.30;;;;;;6303602;22;20300;-79
2021/09/22 05:39:29;;;;;;;18.58;5.10;;;13.90;99.30;;;;;;6303118;22;19995;-79
2021/09/22 05:41:54;;;;;;;19.77;5.75;;;13.90;99.30;;;;;;6302486;22;20006;-79
2021/09/22 05:44:20;;;;;;;16.90;5.45;;;13.90;99.40;;;;;;6303890;22;20322;-79
2021/09/22 05:46:45;;;;;;;13.48;4.68;;;13.80;99.40;;;;;;6303736;22;20029;-80
2021/09/22 05:49:11;;;;;;;12.15;5.50;;;13.80;99.50;;;;;;6301390;22;20052;-79
2021/09/22 05:51:36;;;;;;;14.20;4.55;;;13.90;99.40;;;;;;6303169;22;20023;-80
2021/09/22 05:54:02;;;;;;;18.27;5.13;;;13.90;99.40;;;;;;6302639;22;20007;-79
2021/09/22 05:56:27;;;;;;;13.80;5.20;;;13.90;99.40;;;;;;6303545;22;20074;-81
2021/09/22 05:58:53;;;;;;;15.05;5.88;;;14.00;99.40;;;;;;6302917;22;20131;-79
2021/09/22 06:01:18;;;;;;;11.45;5.93;;;14.00;99.40;;;;;;6302814;22;20010;-79
2021/09/22 06:03:44;;;;;;;15.90;5.43;;;14.00;99.30;;;;;;6276441;22;20000;-79
2021/09/22 06:06:09;;;;;;;10.98;4.68;;;14.00;99.40;;;;;;6303430;22;20026;-79
2021/09/22 06:08:35;;;;;;;9.20;4.07;;;14.00;99.50;;;;;;6303261;22;20056;-79
2021/09/22 06:11:01;;;;;;;12.90;4.50;;;14.10;99.60;;;;;;6302019;22;19999;-79
2021/09/22 06:13:27;;;;;;;11.63;4.18;;;14.10;99.40;;;;;;6303393;22;20070;-79
2021/09/22 06:15:53;;;;;;;12.35;4.60;;;14.10;99.30;;;;;;6275751;22;20011;-78
2021/09/22 06:18:19;;;;;;;20.08;4.57;;;14.20;99.20;;;;;;6302659;22;19999;-79
2021/09/22 06:20:44;;;;;;;15.52;4.22;;;14.10;99.20;;;;;;6303079;22;20000;-79
2021/09/22 06:23:10;;;;;;;9.93;4.22;;;14.20;99.30;;;;;;6303425;22;20122;-79
2021/09/22 06:25:35;;;;;;;18.13;3.80;;;14.10;99.20;;;;;;6274888;22;19999;-80
2021/09/22 06:28:02;;;;;;;8.52;4.28;;;14.20;99.20;;;;;;6302056;22;20369;-79
2021/09/22 06:30:27;;;;;;;12.27;4.88;;;14.20;99.10;;;;;;6273109;22;20017;-79
2021/09/22 06:32:53;;;;;;;18.90;4.55;;;14.30;99.00;;;;;;6300327;22;20007;-80
2021/09/22 06:35:18;;;;;;;16.27;4.95;;;14.30;99.10;;;;;;6273033;22;20093;-79
2021/09/22 06:37:51;;;;;;;15.32;4.35;;;14.30;99.20;;;;;;6299478;22;20007;-80
2021/09/22 06:40:19;;;;;;;14.05;5.47;;;14.30;99.10;;;;;;6301543;22;19999;-80
2021/09/22 06:42:46;;;;;;;12.10;4.30;;;14.20;99.10;;;;;;6300392;22;20083;-80
2021/09/22 06:45:12;;;;;;;22.92;6.95;;;14.30;99.20;;;;;;6300643;22;19995;-80
2021/09/22 06:47:37;;;;;;;12.82;4.50;;;14.30;99.30;;;;;;6300239;22;20086;-79
2021/09/22 06:50:03;;;;;;;15.75;4.25;;;14.30;99.30;;;;;;6300637;22;20011;-79
2021/09/22 06:52:30;;;;;;;14.65;4.60;;;14.40;99.20;;;;;;6301486;22;20003;-79
2021/09/22 06:54:57;;;;;;;20.60;5.03;;;14.50;99.10;;;;;;6303304;22;19995;-79
2021/09/22 06:57:22;;;;;;;11.30;5.15;;;14.50;99.00;;;;;;6275186;22;20014;-79
2021/09/22 06:59:48;;;;;;;11.82;3.60;;;14.60;99.00;;;;;;6300610;22;19999;-80
2021/09/22 07:02:13;;;;;;;9.15;3.55;;;14.60;98.80;;;;;;6301847;22;20003;-79
2021/09/22 07:04:39;;;;;;;10.93;3.50;;;14.70;98.70;;;;;;6301506;22;20010;-81
2021/09/22 07:07:04;;;;;;;13.02;4.22;;;14.70;98.70;;;;;;6302409;22;20074;-79
2021/09/22 07:09:30;;;;;;;11.82;3.95;;;14.70;98.80;;;;;;6301918;22;20003;-79
2021/09/22 07:11:55;;;;;;;11.52;4.72;;;14.80;98.70;;;;;;6302534;22;20019;-79
2021/09/22 07:14:21;;;;;;;13.00;4.00;;;14.80;98.80;;;;;;6303216;22;20061;-79
2021/09/22 07:16:46;;;;;;;16.17;4.70;;;14.80;98.70;;;;;;6274836;22;20038;-80
2021/09/22 07:19:12;;;;;;;14.40;4.72;;;14.80;98.60;;;;;;6274517;22;20003;-80
2021/09/22 07:21:37;;;;;;;19.15;4.22;;;14.80;98.60;;;;;;6302057;22;20010;-79
2021/09/22 07:24:03;;;;;;;23.75;4.50;;;14.90;98.80;;;;;;6275702;22;20060;-78
2021/09/22 07:26:29;;;;;;;15.88;4.50;;;15.00;98.60;;;;;;6302509;22;20082;-79
2021/09/22 07:28:55;;;;;;;8.70;4.10;;;15.00;99.00;;;;;;6302040;22;20457;-80
2021/09/22 07:31:21;;;;;;;11.93;4.07;;;15.10;98.50;;;;;;6302164;22;19999;-80
2021/09/22 07:33:47;;;;;;;13.45;4.30;;;15.10;98.40;;;;;;6302740;22;20021;-79
2021/09/22 07:36:12;;;;;;;9.45;3.78;;;15.20;98.40;;;;;;6302851;22;20009;-80
2021/09/22 07:38:39;;;;;;;13.10;3.95;;;15.20;98.10;;;;;;6274438;22;20030;-79
2021/09/22 07:41:05;;;;;;;12.95;3.47;;;15.20;98.10;;;;;;6302429;22;20406;-79
2021/09/22 07:43:31;;;;;;;17.00;3.72;;;15.20;98.00;;;;;;6275251;22;20003;-80
2021/09/22 07:45:58;;;;;;;15.52;5.35;;;15.30;97.90;;;;;;6301704;22;20444;-80
2021/09/22 07:48:23;;;;;;;8.93;3.67;;;15.30;98.20;;;;;;6300691;22;20015;-80
2021/09/22 07:50:49;;;;;;;19.52;4.57;;;15.30;98.30;;;;;;6300552;22;20322;-79
2021/09/22 07:53:16;;;;;;;14.35;3.83;;;15.40;97.90;;;;;;6300969;22;19995;-79
2021/09/22 07:55:41;;;;;;;13.77;4.95;;;15.40;98.00;;;;;;6302609;22;20478;-80
2021/09/22 07:58:07;;;;;;;13.70;4.00;;;15.50;98.00;;;;;;6301927;22;20030;-80
2021/09/22 08:00:32;;;;;;;12.95;3.63;;;15.50;98.10;;;;;;6274798;22;20031;-77
2021/09/22 08:02:59;;;;;;;14.95;3.80;;;15.50;97.60;;;;;;6300511;22;19995;-79
2021/09/22 08:05:25;;;;;;;16.42;4.25;;;15.60;97.40;;;;;;6302563;22;19995;-79
2021/09/22 08:07:51;;;;;;;18.95;3.45;;;15.60;97.40;;;;;;6273863;22;20008;-80
2021/09/22 08:10:17;;;;;;;12.10;3.05;;;15.70;97.30;;;;;;6302945;22;20000;-80
2021/09/22 08:12:44;;;;;;;12.35;3.97;;;15.70;97.10;;;;;;6302303;22;20029;-78
2021/09/22 08:15:11;;;;;;;14.52;3.88;;;15.70;97.00;;;;;;6301711;22;20329;-78
2021/09/22 08:17:36;;;;;;;10.25;3.75;;;15.70;96.80;;;;;;6274581;22;20086;-80
2021/09/22 08:20:03;;;;;;;9.55;3.20;;;15.80;97.10;;;;;;6301426;22;20039;-79
2021/09/22 08:22:29;;;;;;;10.70;2.50;;;15.80;97.00;;;;;;6298318;22;20505;-80
2021/09/22 08:24:54;;;;;;;13.57;2.45;;;15.90;96.70;;;;;;6299075;22;20038;-79
2021/09/22 08:27:20;;;;;;;13.90;3.25;;;15.90;96.60;;;;;;6271861;22;20086;-79
2021/09/22 08:29:45;;;;;;;16.02;3.90;;;16.00;96.60;;;;;;6271560;22;20090;-77
2021/09/22 08:32:11;;;;;;;15.02;3.83;;;16.00;96.50;;;;;;6299775;22;20368;-78
2021/09/22 08:34:36;;;;;;;17.73;4.32;;;16.00;96.30;;;;;;6302045;22;19999;-79
2021/09/22 08:37:02;;;;;;;17.80;3.58;;;16.00;96.20;;;;;;6302543;22;20437;-78
2021/09/22 08:39:32;;;;;;;14.00;2.65;;;16.10;96.00;;;;;;6301679;22;20006;-79
2021/09/22 08:41:59;;;;;;;15.20;3.30;;;16.10;96.20;;;;;;6274919;22;20031;-78
2021/09/22 08:44:26;;;;;;;15.75;3.28;;;16.10;96.40;;;;;;6302178;22;19999;-77
2021/09/22 08:46:51;;;;;;;10.82;2.92;;;16.20;95.90;;;;;;6302740;22;20487;-78
2021/09/22 08:49:17;;;;;;;10.95;3.80;;;16.30;95.70;;;;;;6302225;22;20090;-77
2021/09/22 08:51:44;;;;;;;15.00;2.65;;;16.40;95.60;;;;;;6302422;22;20007;-78
2021/09/22 08:54:10;;;;;;;9.85;2.22;;;16.50;95.90;;;;;;6302398;22;20014;-78
2021/09/22 08:56:37;;;;;;;8.38;2.45;;;16.60;94.80;;;;;;6301859;22;20041;-78
2021/09/22 08:59:04;;;;;;;15.90;2.60;;;16.60;94.50;;;;;;6301684;22;20068;-78
2021/09/22 09:01:30;;;;;;;12.25;2.40;;;16.80;94.20;;;;;;6274463;22;20006;-77
2021/09/22 09:03:55;;;;;;;9.02;2.08;;;16.80;94.00;;;;;;6302517;22;19995;-77
2021/09/22 09:06:27;;;;;;;13.82;2.72;;;16.90;94.00;;;;;;6302547;22;20323;-79
2021/09/22 09:08:55;;;;;;;12.70;3.35;;;16.90;94.30;;;;;;6273204;22;20082;-79
2021/09/22 09:11:36;;;;;;;11.70;3.47;;;17.00;93.70;;;;;;6274176;22;20060;-79
2021/09/22 09:14:05;;;;;;;13.40;2.85;;;17.10;93.60;;;;;;6301780;22;19995;-78
2021/09/22 09:16:36;;;;;;;13.98;2.05;;;17.20;93.30;;;;;;6301732;22;20003;-78
2021/09/22 09:19:02;;;;;;;10.55;2.03;;;17.20;92.50;;;;;;6301946;22;19991;-78
2021/09/22 09:21:28;;;;;;;11.65;1.90;;;17.30;92.30;;;;;;6301856;22;20007;-77
2021/09/22 09:23:57;;;;;;;10.65;2.53;;;17.30;91.80;;;;;;6300768;22;20445;-77
2021/09/22 09:26:28;;;;;;;15.75;2.15;;;17.40;91.70;;;;;;6301607;22;20433;-78
2021/09/22 09:28:56;;;;;;;14.15;2.85;;;17.40;91.70;;;;;;6301250;22;20057;-78
2021/09/22 09:31:22;;;;;;;12.93;2.90;;;17.50;91.70;;;;;;6301922;22;19999;-78
2021/09/22 09:33:52;;;;;;;17.95;2.15;;;17.60;92.20;;;;;;6274327;22;20334;-78
2021/09/22 09:36:47;;;;;;;11.98;2.08;;;17.70;91.90;;;;;;6302283;22;20086;-79
2021/09/22 09:39:25;;;;;;;11.60;2.33;;;17.70;91.80;;;;;;6299578;22;20351;-79
2021/09/22 09:41:53;;;;;;;12.68;3.22;;;17.90;91.70;;;;;;6301979;22;20405;-79
2021/09/22 09:44:26;;;;;;;11.15;2.08;;;18.00;91.10;;;;;;6301442;22;20011;-76
2021/09/22 09:46:53;;;;;;;;;;;18.10;90.80;;;;;;6301803;22;20010;-78
2021/09/22 09:49:21;;;;;;;13.55;2.45;;;18.20;91.20;;;;;;6302065;22;19907;-76
2021/09/22 09:51:49;;;;;;;7.68;2.30;;;18.30;91.00;;;;;;6302790;22;20078;-77
2021/09/22 09:54:19;;;;;;;9.15;2.28;;;18.30;90.30;;;;;;6303398;22;20002;-78
2021/09/22 09:56:46;;;;;;;8.48;1.98;;;18.20;90.60;;;;;;6275010;22;20007;-79
2021/09/22 09:59:12;;;;;;;17.83;2.28;;;18.30;91.00;;;;;;6302488;22;20048;-79
2021/09/22 10:01:43;;;;;;;12.95;2.63;;;18.30;90.90;;;;;;6302475;22;20082;-78
2021/09/22 10:04:11;;;;;;;9.48;2.15;;;18.40;91.20;;;;;;6303066;22;20007;-79
2021/09/22 10:06:38;;;;;;;9.93;2.08;;;18.50;90.00;;;;;;6274880;22;20033;-78
2021/09/22 10:09:05;;;;;;;10.95;2.35;;;18.50;89.80;;;;;;6273890;22;20056;-79
2021/09/22 10:11:35;;;;;;;13.13;2.25;;;18.50;89.30;;;;;;6302214;22;20085;-80
2021/09/22 10:14:02;;;;;;;13.15;2.08;;;18.50;90.00;;;;;;6303411;22;19999;-84
2021/09/22 10:16:28;;;;;;;10.13;2.13;;;18.60;90.00;;;;;;6275183;22;20031;-79
2021/09/22 10:18:57;;;;;;;9.00;1.95;;;18.60;88.50;;;;;;6302392;22;20453;-77
2021/09/22 10:21:24;;;;;;;11.45;2.95;;;18.50;89.30;;;;;;6275223;22;20437;-76
2021/09/22 10:23:52;;;;;;;11.10;2.22;;;18.40;89.70;;;;;;6275890;22;20007;-80
2021/09/22 10:26:18;;;;;;;10.00;1.90;;;18.40;90.10;;;;;;6303093;22;20422;-78
2021/09/22 10:28:45;;;;;;;10.50;2.40;;;18.40;89.40;;;;;;6300846;22;20018;-78
2021/09/22 10:31:27;;;;;;;10.18;2.35;;;18.50;90.90;;;;;;6302022;22;20421;-80
2021/09/22 10:33:53;;;;;;;14.90;2.33;;;18.50;90.60;;;;;;6302567;22;20429;-79
2021/09/22 10:36:38;;;;;;;11.43;2.22;;;18.50;90.20;;;;;;6303094;22;20010;-79
2021/09/22 10:39:06;;;;;;;12.50;2.33;;;18.50;88.80;;;;;;6274909;22;20369;-79
2021/09/22 10:41:40;;;;;;;7.00;1.95;;;18.50;88.60;;;;;;6302746;22;20013;-80
2021/09/22 10:44:11;;;;;;;9.85;2.15;;;18.50;90.00;;;;;;6303048;22;20006;-85
2021/09/22 10:46:36;;;;;;;9.52;1.90;;;18.50;90.00;;;;;;6278697;22;20038;-79
2021/09/22 10:49:05;;;;;;;15.20;3.20;;;18.50;90.20;;;;;;6303571;22;20636;-79
2021/09/22 10:51:37;;;;;;;12.43;2.47;;;18.50;90.40;;;;;;6277144;22;20084;-77
2021/09/22 10:54:32;;;;;;;12.55;2.40;;;18.40;90.20;;;;;;6302301;22;20003;-76
2021/09/22 10:57:01;;;;;;;11.75;2.63;;;18.40;90.10;;;;;;6268603;22;20636;-74
2021/09/22 11:00:06;;;;;;;17.75;2.42;;;18.40;90.10;;;;;;6301745;22;20010;-77
2021/09/22 11:02:47;;;;;;;9.30;1.88;;;18.40;89.90;;;;;;6274592;22;20326;-77
2021/09/22 11:05:26;;;;;;;9.77;1.67;;;18.40;90.10;;;;;;6302654;22;20007;-79
2021/09/22 11:08:08;;;;;;;7.78;2.10;;;18.50;88.50;;;;;;6301454;22;20011;-78
2021/09/22 11:10:45;;;;;;;11.45;1.88;;;18.50;88.70;;;;;;6298814;22;20015;-76
2021/09/22 11:13:22;;;;;;;8.38;1.85;;;18.70;88.50;;;;;;6301877;22;20970;-76
2021/09/22 11:15:50;;;;;;;7.03;1.83;;;18.60;88.30;;;;;;6302233;22;20006;-77
2021/09/22 11:18:18;;;;;;;15.55;2.95;;;18.60;89.10;;;;;;6301219;22;20000;-78
2021/09/22 11:20:58;;;;;;;11.30;2.45;;;18.60;89.30;;;;;;6301717;22;20007;-78
2021/09/22 11:23:25;;;;;;;7.22;2.03;;;18.70;90.20;;;;;;6301913;22;20307;-78
2021/09/22 11:25:51;;;;;;;9.10;2.65;;;18.80;89.00;;;;;;6302044;22;20042;-78
2021/09/22 11:28:17;;;;;;;6.60;1.85;;;18.90;87.30;;;;;;6301309;22;20007;-77
2021/09/22 11:30:44;;;;;;;6.88;1.88;;;19.00;88.70;;;;;;6301955;22;20043;-77
2021/09/22 11:33:20;;;;;;;9.23;1.80;;;19.10;88.40;;;;;;6302601;22;19999;-77
2021/09/22 11:35:45;;;;;;;7.38;2.05;;;19.20;85.10;;;;;;6274475;22;19999;-77
2021/09/22 11:38:11;;;;;;;11.35;1.98;;;19.20;86.60;;;;;;6300799;22;20010;-77
2021/09/22 11:40:37;;;;;;;6.53;1.58;;;19.30;83.50;;;;;;6302301;22;20072;-78
2021/09/22 11:43:11;;;;;;;7.93;1.65;;;19.40;84.60;;;;;;6301905;22;20003;-76
2021/09/22 11:45:43;;;;;;;5.38;1.73;;;19.50;85.70;;;;;;6301717;22;20026;-77
2021/09/22 11:48:10;;;;;;;11.07;1.83;;;19.60;83.60;;;;;;6301189;22;20003;-77
2021/09/22 11:50:39;;;;;;;8.73;2.17;;;19.70;83.80;;;;;;6301917;22;20057;-77
2021/09/22 11:53:16;;;;;;;8.38;1.80;;;19.60;83.90;;;;;;6302180;22;20003;-77
2021/09/22 11:55:45;;;;;;;12.13;2.03;;;19.50;83.60;;;;;;6302971;22;20005;-78
2021/09/22 11:58:12;;;;;;;7.30;1.92;;;19.50;85.20;;;;;;6300884;22;20422;-78
2021/09/22 12:00:39;;;;;;;13.88;3.40;;;19.60;85.80;;;;;;6301711;22;20026;-77
2021/09/22 12:03:06;;;;;;;9.55;1.48;;;19.60;84.30;;;;;;6301602;22;20003;-77
2021/09/22 12:05:32;;;;;;;10.75;2.58;;;19.60;85.00;;;;;;6301641;22;20018;-78
2021/09/22 12:07:57;;;;;;;7.43;2.10;;;19.50;85.50;;;;;;6301276;22;20011;-77
2021/09/22 12:10:24;;;;;;;9.90;2.35;;;19.40;85.70;;;;;;6304211;22;20015;-78
2021/09/22 12:12:50;;;;;;;11.70;2.15;;;19.30;86.70;;;;;;6303700;22;20002;-77
2021/09/22 12:15:17;;;;;;;11.93;2.05;;;19.20;87.20;;;;;;6303954;22;20062;-77
2021/09/22 12:17:43;;;;;;;10.00;2.13;;;19.10;87.80;;;;;;6302686;22;20480;-77
2021/09/22 12:20:16;;;;;;;8.95;1.98;;;19.20;88.50;;;;;;6304310;22;20003;-77
2021/09/22 12:22:44;;;;;;;8.57;2.28;;;19.30;88.90;;;;;;6302961;22;20002;-77
2021/09/22 12:25:13;;;;;;;12.15;2.67;;;19.50;89.90;;;;;;6304330;22;20048;-78
2021/09/22 12:27:48;;;;;;;10.70;2.38;;;19.80;87.90;;;;;;6303550;22;20015;-78
2021/09/22 12:30:13;;;;;;;10.88;2.30;;;20.00;85.20;;;;;;6304662;22;20168;-78
2021/09/22 12:32:54;;;;;;;9.73;1.75;;;20.10;84.20;;;;;;6301772;22;20073;-77
2021/09/22 12:35:21;;;;;;;13.10;2.53;;;20.20;83.00;;;;;;6304119;22;20011;-77
2021/09/22 12:37:54;;;;;;;9.52;2.80;;;20.20;82.50;;;;;;6302995;22;20007;-77
2021/09/22 12:40:28;;;;;;;3.85;1.45;;;20.10;83.50;;;;;;6302984;22;20461;-78